Time;durP1;ratioP1;P1;durP2;ratioP2;P2;SDS_P1;SDS_P2;PMS_P1;PMS_P2;Temp;Humidity;BMP_temperature;BMP_pressure;BME280_temperature;BME280_humidity;BME280_pressure;Samples;Min_cycle;Max_cycle;Signal;HPM_P1;HPM_P2
2021/11/03 00:01:13;;;;;;;157.43;144.35;;;6.00;99.90;;;;;;5016983;28;20162;-87
2021/11/03 00:03:45;;;;;;;149.02;135.95;;;5.90;99.90;;;;;;5015665;28;20186;-87
2021/11/03 00:06:13;;;;;;;125.68;113.80;;;5.90;99.90;;;;;;5015566;28;20229;-87
2021/11/03 00:08:39;;;;;;;148.18;135.60;;;6.00;99.90;;;;;;5031090;28;20214;-87
2021/11/03 00:11:05;;;;;;;150.97;138.50;;;6.00;99.90;;;;;;5031219;28;20304;-87
2021/11/03 00:13:31;;;;;;;178.90;164.95;;;5.90;99.90;;;;;;5016072;28;20525;-87
2021/11/03 00:16:06;;;;;;;138.67;126.23;;;5.90;99.90;;;;;;5013969;28;20188;-87
2021/11/03 00:18:32;;;;;;;158.05;144.90;;;5.90;99.90;;;;;;5030884;28;20186;-87
2021/11/03 00:20:59;;;;;;;128.37;116.70;;;6.00;99.90;;;;;;5015593;28;20252;-87
2021/11/03 00:23:25;;;;;;;147.68;135.02;;;6.00;99.90;;;;;;5015521;28;20852;-87
2021/11/03 00:25:52;;;;;;;178.27;164.43;;;5.90;99.90;;;;;;5015269;28;20176;-87
2021/11/03 00:28:20;;;;;;;144.88;132.48;;;5.80;99.90;;;;;;5016739;28;20193;-87
2021/11/03 00:30:49;;;;;;;142.20;129.82;;;5.80;99.90;;;;;;5015841;28;20229;-87
2021/11/03 00:33:16;;;;;;;150.43;137.93;;;5.80;99.90;;;;;;5016683;28;20634;-87
2021/11/03 00:35:41;;;;;;;154.48;141.75;;;5.80;99.90;;;;;;5016885;28;20170;-87
2021/11/03 00:38:07;;;;;;;139.50;127.37;;;5.80;99.90;;;;;;5032840;28;20300;-87
2021/11/03 00:40:43;;;;;;;;;;;;;;;;;;;;;
2021/11/03 00:43:12;;;;;;;166.45;152.70;;;5.80;99.90;;;;;;5018092;28;20883;-84
2021/11/03 00:45:41;;;;;;;157.70;144.75;;;5.80;99.90;;;;;;4997719;28;20174;-85
2021/11/03 00:48:29;;;;;;;134.70;122.75;;;5.80;99.90;;;;;;4995504;28;20198;-84
2021/11/03 00:51:29;;;;;;;;;;;;;;;;;;;;;
2021/11/03 00:54:31;;;;;;;167.40;153.95;;;5.80;99.90;;;;;;4998010;28;20167;-84
2021/11/03 00:57:14;;;;;;;148.65;136.27;;;5.80;99.90;;;;;;4980891;28;20162;-84
2021/11/03 00:59:48;;;;;;;134.88;122.90;;;5.80;99.90;;;;;;4998565;28;20221;-84
2021/11/03 01:02:40;;;;;;;171.52;157.88;;;5.80;99.90;;;;;;4998372;28;20685;-84
2021/11/03 01:05:37;;;;;;;192.07;177.63;;;5.70;99.90;;;;;;4921893;29;20260;-84
2021/11/03 01:08:21;;;;;;;179.90;166.20;;;5.70;99.90;;;;;;4938077;29;20215;-84
2021/11/03 01:10:52;;;;;;;228.10;212.75;;;5.70;99.90;;;;;;4989473;28;20260;-85
2021/11/03 01:13:28;;;;;;;200.60;185.70;;;5.70;99.90;;;;;;4981186;28;20151;-85
2021/11/03 01:16:21;;;;;;;209.60;195.15;;;5.70;99.90;;;;;;4998329;28;20611;-85
2021/11/03 01:19:09;;;;;;;;;;;;;;;;;;;;;
2021/11/03 01:21:39;;;;;;;178.63;165.15;;;5.80;99.90;;;;;;4998012;28;20151;-84
2021/11/03 01:24:09;;;;;;;196.95;182.30;;;5.80;99.90;;;;;;4980825;28;20166;-85
2021/11/03 01:26:38;;;;;;;217.75;202.43;;;5.80;99.90;;;;;;4981176;28;20223;-85
2021/11/03 01:29:10;;;;;;;178.77;165.38;;;5.70;99.90;;;;;;4997361;28;20191;-85
2021/11/03 01:31:51;;;;;;;186.25;172.57;;;5.70;99.90;;;;;;4997564;28;20562;-84
2021/11/03 01:34:26;;;;;;;213.45;198.65;;;5.70;99.90;;;;;;4997769;28;20151;-85
2021/11/03 01:36:51;;;;;;;187.05;173.38;;;5.80;99.90;;;;;;4979825;28;20252;-85
2021/11/03 01:39:29;;;;;;;177.93;164.23;;;5.80;99.90;;;;;;4997345;28;20194;-85
2021/11/03 01:42:12;;;;;;;216.20;200.70;;;5.80;99.90;;;;;;4997352;28;20433;-85
2021/11/03 01:44:58;;;;;;;179.18;165.82;;;5.70;99.90;;;;;;4997040;28;20197;-85
2021/11/03 01:47:59;;;;;;;197.50;182.88;;;5.70;99.90;;;;;;4980035;28;20201;-85
2021/11/03 01:50:55;;;;;;;168.63;155.60;;;5.60;99.90;;;;;;4997318;28;20185;-84
2021/11/03 01:53:41;;;;;;;;;;;;;;;;;;;;;
2021/11/03 01:56:13;;;;;;;158.68;146.00;;;5.60;99.90;;;;;;4998474;28;20697;-84
2021/11/03 01:59:21;;;;;;;207.52;192.80;;;5.60;99.90;;;;;;4997304;28;20191;-84
2021/11/03 02:01:57;;;;;;;176.05;162.60;;;5.50;99.90;;;;;;4968429;28;20215;-84
2021/11/03 02:04:47;;;;;;;218.63;203.88;;;5.60;99.90;;;;;;4997271;28;20165;-85
2021/11/03 02:07:28;;;;;;;196.95;182.52;;;5.60;99.90;;;;;;4997186;28;20685;-84
2021/11/03 02:09:54;;;;;;;226.85;211.60;;;5.60;99.90;;;;;;4979992;28;20213;-85
2021/11/03 02:12:30;;;;;;;239.45;224.27;;;5.70;99.90;;;;;;4980090;28;20163;-84
2021/11/03 02:15:14;;;;;;;202.85;188.68;;;5.70;99.90;;;;;;4997453;28;20153;-85
2021/11/03 02:17:46;;;;;;;229.93;214.48;;;5.70;99.90;;;;;;4979094;28;20253;-84
2021/11/03 02:20:20;;;;;;;219.95;204.75;;;5.70;99.90;;;;;;4979937;28;20198;-85
2021/11/03 02:23:48;;;;;;;204.15;189.77;;;5.80;99.90;;;;;;4996824;28;20150;-84
2021/11/03 02:26:38;;;;;;;223.00;207.68;;;5.70;99.90;;;;;;4996233;28;20178;-85
2021/11/03 02:29:07;;;;;;;230.50;214.85;;;5.70;99.90;;;;;;4978417;28;20292;-85
2021/11/03 02:32:19;;;;;;;233.73;218.70;;;5.70;99.90;;;;;;4979316;28;20288;-85
2021/11/03 02:35:54;;;;;;;230.75;215.75;;;5.70;99.90;;;;;;4993828;28;20265;-85
2021/11/03 02:37:52;;;;;;;228.90;214.02;;;5.70;99.90;;;;;;4983507;28;20309;-85
2021/11/03 02:40:31;;;;;;;225.57;210.20;;;5.70;99.90;;;;;;4976668;28;20197;-84
2021/11/03 02:43:33;;;;;;;213.00;198.63;;;5.70;99.90;;;;;;4963522;28;20288;-85
2021/11/03 02:46:10;;;;;;;254.27;238.23;;;5.70;99.90;;;;;;4979746;28;20546;-85
2021/11/03 02:48:37;;;;;;;218.70;203.85;;;5.70;99.90;;;;;;4979070;28;20736;-85
2021/11/03 02:51:20;;;;;;;214.70;200.02;;;5.70;99.90;;;;;;4996566;28;20206;-84
2021/11/03 02:54:25;;;;;;;226.93;211.73;;;5.70;99.90;;;;;;4978885;28;20270;-85
2021/11/03 02:56:57;;;;;;;269.35;252.77;;;5.70;99.90;;;;;;4919169;29;20177;-84
2021/11/03 03:00:03;;;;;;;259.35;242.93;;;5.70;99.90;;;;;;4990601;28;20213;-85
2021/11/03 03:02:38;;;;;;;214.90;200.20;;;5.70;99.90;;;;;;4973285;28;20183;-85
2021/11/03 03:05:13;;;;;;;254.07;237.65;;;5.70;99.90;;;;;;4978992;28;20166;-85
2021/11/03 03:07:52;;;;;;;220.15;204.75;;;5.70;99.90;;;;;;4978872;28;20162;-85
2021/11/03 03:10:32;;;;;;;234.30;218.85;;;5.70;99.90;;;;;;4996452;28;20265;-85
2021/11/03 03:13:04;;;;;;;238.38;222.73;;;5.70;99.90;;;;;;4996882;28;20147;-85
2021/11/03 03:15:36;;;;;;;258.88;242.27;;;5.70;99.90;;;;;;4996414;28;20185;-85
2021/11/03 03:18:17;;;;;;;302.63;284.48;;;5.70;99.90;;;;;;4978403;28;20195;-85
2021/11/03 03:20:45;;;;;;;270.38;253.55;;;5.70;99.90;;;;;;4996254;28;20162;-86
2021/11/03 03:23:14;;;;;;;268.17;251.48;;;5.70;99.90;;;;;;4979523;28;20198;-84
2021/11/03 03:26:04;;;;;;;295.48;277.55;;;5.80;99.90;;;;;;4996328;28;20166;-85
2021/11/03 03:28:59;;;;;;;;;;;;;;;;;;;;;
2021/11/03 03:31:26;;;;;;;247.68;231.93;;;5.70;99.90;;;;;;4994180;28;20213;-85
2021/11/03 03:33:55;;;;;;;297.33;279.30;;;5.70;99.90;;;;;;4996470;28;20213;-85
2021/11/03 03:36:29;;;;;;;290.50;273.10;;;5.70;99.90;;;;;;4995749;28;20563;-85
2021/11/03 03:38:55;;;;;;;319.67;301.13;;;5.70;99.90;;;;;;4995970;28;20553;-84
2021/11/03 03:41:31;;;;;;;272.98;255.18;;;5.70;99.90;;;;;;4978338;28;20205;-84
2021/11/03 03:44:06;;;;;;;343.13;323.42;;;5.70;99.90;;;;;;4995657;28;20158;-85
2021/11/03 03:46:37;;;;;;;317.35;298.95;;;5.80;99.90;;;;;;4977901;28;20212;-84
2021/11/03 03:49:07;;;;;;;273.58;256.70;;;5.80;99.90;;;;;;4978237;28;20562;-84
2021/11/03 03:51:59;;;;;;;313.33;295.25;;;5.80;99.90;;;;;;4996096;28;20277;-85
2021/11/03 03:54:34;;;;;;;283.83;266.00;;;5.90;99.90;;;;;;4995726;28;20173;-85
2021/11/03 03:57:18;;;;;;;317.42;298.98;;;5.80;99.90;;;;;;4995767;28;20150;-85
2021/11/03 03:59:44;;;;;;;284.63;267.08;;;5.80;99.90;;;;;;4995488;28;20214;-85
2021/11/03 04:02:58;;;;;;;;;;;;;;;;;;;;;
2021/11/03 04:06:11;;;;;;;294.23;276.40;;;5.80;99.90;;;;;;4936514;29;20184;-84
2021/11/03 04:12:41;;;;;;;266.20;249.75;;;5.80;99.90;;;;;;4900918;29;20597;-85
2021/11/03 04:15:43;;;;;;;281.65;264.05;;;5.90;99.90;;;;;;4977887;28;20550;-84
2021/11/03 04:18:21;;;;;;;258.95;242.18;;;5.80;99.90;;;;;;4997756;28;20185;-84
2021/11/03 04:20:54;;;;;;;278.67;261.13;;;5.90;99.90;;;;;;4981720;28;20530;-84
2021/11/03 04:23:32;;;;;;;316.88;298.15;;;5.90;99.90;;;;;;4981577;28;20177;-86
2021/11/03 04:26:22;;;;;;;286.58;269.13;;;5.90;99.90;;;;;;4981975;28;20245;-85
2021/11/03 04:28:51;;;;;;;291.27;273.90;;;5.90;99.90;;;;;;4972609;28;20206;-84
2021/11/03 04:31:29;;;;;;;265.23;248.18;;;6.10;99.90;;;;;;4982216;28;20206;-85
2021/11/03 04:34:28;;;;;;;292.73;275.38;;;6.00;99.90;;;;;;4982484;28;20518;-85
2021/11/03 04:37:45;;;;;;;296.58;278.73;;;5.90;99.90;;;;;;4998152;28;20213;-85
2021/11/03 04:40:44;;;;;;;296.45;279.25;;;5.90;99.90;;;;;;4996427;28;20684;-84
2021/11/03 04:43:25;;;;;;;229.13;213.63;;;5.80;99.90;;;;;;4997717;28;20185;-85
2021/11/03 04:46:49;;;;;;;297.05;279.45;;;5.80;99.90;;;;;;4978204;28;20185;-85
2021/11/03 04:49:21;;;;;;;264.58;248.15;;;5.80;99.90;;;;;;4998642;28;20191;-85
2021/11/03 04:51:55;;;;;;;258.63;241.95;;;5.80;99.90;;;;;;4998838;28;20163;-85
2021/11/03 04:54:57;;;;;;;296.70;278.50;;;5.70;99.90;;;;;;4981718;28;20506;-85
2021/11/03 04:57:33;;;;;;;278.65;261.00;;;5.70;99.90;;;;;;4998915;28;20154;-85
2021/11/03 05:00:09;;;;;;;254.90;238.55;;;5.70;99.90;;;;;;4999104;28;20158;-85
2021/11/03 05:02:50;;;;;;;278.98;262.08;;;5.80;99.90;;;;;;4981076;28;20162;-85
2021/11/03 05:05:35;;;;;;;271.42;254.52;;;5.90;99.90;;;;;;4998329;28;20687;-85
2021/11/03 05:08:02;;;;;;;293.42;276.02;;;5.90;99.90;;;;;;4980721;28;20190;-84
2021/11/03 05:11:26;;;;;;;293.40;275.75;;;5.90;99.90;;;;;;4980489;28;20206;-85
2021/11/03 05:13:51;;;;;;;264.02;247.65;;;6.00;99.90;;;;;;4994029;28;20248;-84
2021/11/03 05:16:37;;;;;;;318.17;299.85;;;5.90;99.90;;;;;;4980883;28;20260;-85
2021/11/03 05:19:06;;;;;;;292.67;275.20;;;6.00;99.90;;;;;;4998398;28;20190;-85
2021/11/03 05:21:59;;;;;;;;;;;;;;;;;;;;;
2021/11/03 05:24:51;;;;;;;;;;;;;;;;;;;;;
2021/11/03 05:28:08;;;;;;;328.73;309.42;;;6.00;99.90;;;;;;4999143;28;20154;-84
2021/11/03 05:30:47;;;;;;;280.20;263.13;;;6.10;99.90;;;;;;4996703;28;20209;-85
2021/11/03 05:33:16;;;;;;;276.77;259.88;;;6.10;99.90;;;;;;4980638;28;20182;-85
2021/11/03 05:36:02;;;;;;;260.60;244.18;;;6.10;99.90;;;;;;4981281;28;20171;-85
2021/11/03 05:38:53;;;;;;;294.10;276.45;;;6.10;99.90;;;;;;4981368;28;20272;-85
2021/11/03 05:41:30;;;;;;;304.70;286.80;;;6.10;99.90;;;;;;4988747;28;20194;-85
2021/11/03 05:43:58;;;;;;;279.33;262.10;;;6.10;99.90;;;;;;4979993;28;20182;-86
2021/11/03 05:46:51;;;;;;;314.63;295.98;;;6.10;99.90;;;;;;4980297;28;20538;-84
2021/11/03 05:49:20;;;;;;;296.58;279.00;;;6.20;99.90;;;;;;4978060;28;20211;-85
2021/11/03 05:52:24;;;;;;;298.48;280.73;;;6.30;99.90;;;;;;4980251;28;20186;-84
2021/11/03 05:55:09;;;;;;;268.35;251.50;;;6.20;99.90;;;;;;4980106;28;20166;-85
2021/11/03 05:57:48;;;;;;;282.48;265.10;;;6.30;99.90;;;;;;4979303;28;20720;-85
2021/11/03 06:00:33;;;;;;;316.35;297.60;;;6.30;99.90;;;;;;4982235;28;20205;-85
2021/11/03 06:03:18;;;;;;;252.27;235.82;;;6.30;99.90;;;;;;4999021;28;20175;-84
2021/11/03 06:05:50;;;;;;;292.33;274.75;;;6.30;99.90;;;;;;4982618;28;20171;-85
2021/11/03 06:08:30;;;;;;;358.13;337.70;;;6.20;99.90;;;;;;4981456;28;20198;-85
2021/11/03 06:11:25;;;;;;;333.65;314.02;;;6.20;99.90;;;;;;4999539;28;20201;-85
2021/11/03 06:13:59;;;;;;;280.83;263.58;;;6.30;99.90;;;;;;4982173;28;20171;-84
2021/11/03 06:17:09;;;;;;;326.23;307.10;;;6.30;99.90;;;;;;4999871;28;20175;-85
2021/11/03 06:20:00;;;;;;;287.75;270.15;;;6.40;99.90;;;;;;4983723;28;20194;-85
2021/11/03 06:22:45;;;;;;;301.05;282.17;;;6.40;99.90;;;;;;5001079;28;20173;-83
2021/11/03 06:29:41;;;;;;;270.10;252.65;;;6.40;99.90;;;;;;4920061;28;20186;-85
2021/11/03 06:32:32;;;;;;;249.75;233.07;;;6.40;99.90;;;;;;4924948;29;20193;-85
2021/11/03 06:35:16;;;;;;;306.38;287.67;;;6.50;99.90;;;;;;4924183;29;20257;-85
2021/11/03 06:38:11;;;;;;;316.05;297.70;;;6.50;99.90;;;;;;4922830;29;20190;-84
2021/11/03 06:40:41;;;;;;;297.30;279.42;;;6.40;99.90;;;;;;5078901;23;20209;-87
2021/11/03 06:43:08;;;;;;;337.15;318.00;;;6.40;99.90;;;;;;5034950;28;20561;-87
2021/11/03 06:45:34;;;;;;;322.10;302.92;;;6.50;99.90;;;;;;5033506;28;20165;-87
2021/11/03 06:48:03;;;;;;;321.70;302.23;;;6.50;99.90;;;;;;5034093;28;20768;-88
2021/11/03 06:50:35;;;;;;;328.40;309.33;;;6.40;99.90;;;;;;5035012;28;20181;-87
2021/11/03 06:53:02;;;;;;;300.17;281.98;;;6.50;99.90;;;;;;5034426;28;20544;-87
2021/11/03 06:55:30;;;;;;;304.95;286.92;;;6.50;99.90;;;;;;5035836;28;20188;-86
2021/11/03 06:58:38;;;;;;;291.98;274.05;;;6.50;99.90;;;;;;5019759;28;20193;-86
2021/11/03 07:01:04;;;;;;;290.55;272.92;;;6.50;99.90;;;;;;5016948;28;20176;-86
2021/11/03 07:03:33;;;;;;;338.30;318.37;;;6.40;99.90;;;;;;5039127;28;20161;-86
2021/11/03 07:06:07;;;;;;;309.60;291.55;;;6.50;99.90;;;;;;5038021;28;20439;-86
2021/11/03 07:08:57;;;;;;;287.13;269.90;;;6.50;99.90;;;;;;5038825;28;20181;-86
2021/11/03 07:11:28;;;;;;;307.15;289.38;;;6.50;99.90;;;;;;5038043;28;20180;-86
2021/11/03 07:14:03;;;;;;;326.95;308.02;;;6.50;99.90;;;;;;5038665;28;20146;-87
2021/11/03 07:16:32;;;;;;;317.23;298.08;;;6.50;99.90;;;;;;5038309;28;20153;-87
2021/11/03 07:19:35;;;;;;;287.00;268.85;;;6.50;99.90;;;;;;5038549;28;20183;-86
2021/11/03 07:22:04;;;;;;;314.65;296.35;;;6.50;99.90;;;;;;4997260;28;20177;-87
2021/11/03 07:24:32;;;;;;;291.48;273.20;;;6.60;99.90;;;;;;5038837;28;20173;-87
2021/11/03 07:26:58;;;;;;;305.52;287.10;;;6.60;99.90;;;;;;5039088;28;20165;-87
2021/11/03 07:29:27;;;;;;;303.90;285.80;;;6.50;99.90;;;;;;5036096;28;20200;-86
2021/11/03 07:32:07;;;;;;;328.30;309.00;;;6.50;99.90;;;;;;5037257;28;20428;-87
2021/11/03 07:34:52;;;;;;;270.10;253.18;;;6.50;99.90;;;;;;5036849;28;20173;-87
2021/11/03 07:37:24;;;;;;;342.05;322.35;;;6.50;99.90;;;;;;5039184;28;20157;-87
2021/11/03 07:43:55;;;;;;;305.50;287.42;;;6.60;99.90;;;;;;5018639;28;20189;-87
2021/11/03 07:46:47;;;;;;;;;;;;;;;;;;;;;
2021/11/03 07:49:16;;;;;;;294.60;276.85;;;6.80;99.90;;;;;;5037695;28;20271;-87
2021/11/03 07:51:42;;;;;;;311.90;293.77;;;6.80;99.90;;;;;;5035649;28;20177;-87
2021/11/03 07:54:11;;;;;;;328.93;309.53;;;6.80;99.90;;;;;;5036121;28;20157;-86
2021/11/03 07:56:43;;;;;;;324.63;305.88;;;6.80;99.90;;;;;;5038045;28;20229;-86
2021/11/03 07:59:14;;;;;;;335.75;316.65;;;6.90;99.90;;;;;;5036984;28;20196;-86
2021/11/03 08:01:39;;;;;;;306.67;288.80;;;6.90;99.90;;;;;;5037004;28;20188;-87
2021/11/03 08:04:05;;;;;;;299.50;281.57;;;6.80;99.90;;;;;;5038445;28;20173;-86
2021/11/03 08:07:01;;;;;;;310.33;292.23;;;6.90;99.90;;;;;;5038165;28;20160;-87
2021/11/03 08:09:27;;;;;;;338.45;319.55;;;7.00;99.90;;;;;;5037182;28;20765;-87
2021/11/03 08:12:02;;;;;;;367.52;347.08;;;7.00;99.90;;;;;;5036058;28;20165;-87
2021/11/03 08:14:45;;;;;;;334.77;315.67;;;7.00;99.90;;;;;;5032610;28;20718;-86
2021/11/03 08:17:27;;;;;;;317.35;298.85;;;7.00;99.90;;;;;;5037867;28;20177;-86
2021/11/03 08:20:20;;;;;;;338.25;319.02;;;7.00;99.90;;;;;;5035916;28;20226;-87
2021/11/03 08:23:24;;;;;;;329.33;310.40;;;7.10;99.90;;;;;;5037241;28;20633;-86
2021/11/03 08:26:27;;;;;;;314.08;295.75;;;7.00;99.90;;;;;;5011731;28;20221;-86
2021/11/03 08:29:50;;;;;;;323.30;304.88;;;7.00;99.90;;;;;;5035310;28;20231;-86
2021/11/03 08:32:31;;;;;;;334.35;314.75;;;7.00;99.90;;;;;;4979058;28;20194;-87
2021/11/03 08:34:57;;;;;;;316.52;298.52;;;7.10;99.90;;;;;;4978359;28;20158;-87
2021/11/03 08:37:35;;;;;;;323.05;304.95;;;7.00;99.90;;;;;;5007216;28;20703;-87
2021/11/03 08:40:06;;;;;;;310.63;291.98;;;7.00;99.90;;;;;;5034276;28;20617;-87
2021/11/03 08:42:32;;;;;;;324.77;306.08;;;7.00;99.90;;;;;;5033750;28;20640;-87
2021/11/03 08:44:58;;;;;;;331.90;312.30;;;7.00;99.90;;;;;;5033956;28;20181;-86
2021/11/03 08:47:24;;;;;;;324.53;305.87;;;7.10;99.90;;;;;;5036375;28;20169;-87
2021/11/03 08:49:50;;;;;;;361.03;340.67;;;7.10;99.90;;;;;;5035841;28;20201;-86
2021/11/03 08:52:18;;;;;;;346.93;326.90;;;7.20;99.90;;;;;;5037309;28;20404;-86
2021/11/03 08:54:55;;;;;;;352.92;333.20;;;7.30;99.90;;;;;;5038070;28;20407;-86
2021/11/03 08:57:22;;;;;;;371.80;351.23;;;7.40;99.90;;;;;;5036837;28;20158;-86
2021/11/03 08:59:51;;;;;;;319.58;300.85;;;7.40;99.90;;;;;;5038448;28;20181;-86
2021/11/03 09:02:18;;;;;;;366.13;345.92;;;7.50;99.90;;;;;;5038029;28;20522;-87
2021/11/03 09:04:48;;;;;;;376.35;355.65;;;7.50;99.90;;;;;;5041049;28;20161;-86
2021/11/03 09:07:14;;;;;;;371.92;350.75;;;7.60;99.90;;;;;;5038221;28;20193;-87
2021/11/03 09:09:49;;;;;;;370.05;349.50;;;7.60;99.90;;;;;;5038956;28;20188;-87
2021/11/03 09:12:18;;;;;;;371.27;350.90;;;7.60;99.90;;;;;;5038239;28;20196;-86
2021/11/03 09:14:58;;;;;;;409.83;387.38;;;7.60;99.90;;;;;;5039239;28;20169;-87
2021/11/03 09:17:27;;;;;;;355.30;335.65;;;7.50;99.90;;;;;;5040089;28;20168;-87
2021/11/03 09:20:06;;;;;;;386.02;364.58;;;7.60;99.90;;;;;;5035801;28;20192;-87
2021/11/03 09:23:09;;;;;;;332.98;314.00;;;7.60;99.90;;;;;;5033434;28;20173;-87
2021/11/03 09:25:56;;;;;;;301.42;283.63;;;7.60;99.90;;;;;;5035871;28;20172;-87
2021/11/03 09:28:25;;;;;;;333.33;314.42;;;7.50;99.90;;;;;;5035536;28;20197;-86
2021/11/03 09:31:10;;;;;;;;;;;;;;;;;;;;;
2021/11/03 09:33:54;;;;;;;366.50;346.15;;;7.50;99.90;;;;;;5039023;28;20150;-87
2021/11/03 09:37:18;;;;;;;;;;;;;;;;;;;;;
2021/11/03 09:40:08;;;;;;;367.77;347.83;;;7.70;99.90;;;;;;5032430;28;20284;-87
2021/11/03 09:42:44;;;;;;;358.00;338.40;;;7.80;99.90;;;;;;5036674;28;20165;-87
2021/11/03 09:45:22;;;;;;;367.40;347.25;;;7.80;99.90;;;;;;5036471;28;20632;-87
2021/11/03 09:48:29;;;;;;;409.88;388.50;;;7.80;99.90;;;;;;5039692;28;20662;-86
2021/11/03 09:51:00;;;;;;;367.30;346.52;;;7.90;99.90;;;;;;5040866;28;20601;-87
2021/11/03 09:53:45;;;;;;;364.33;344.25;;;8.00;99.90;;;;;;5042015;28;20180;-87
2021/11/03 09:56:32;;;;;;;334.98;315.98;;;8.00;99.90;;;;;;5038297;28;20218;-86
2021/11/03 09:59:29;;;;;;;364.38;344.13;;;8.00;99.90;;;;;;5037368;28;20263;-86
2021/11/03 10:02:28;;;;;;;361.17;340.77;;;8.00;99.90;;;;;;5036196;28;20601;-87
2021/11/03 10:05:12;;;;;;;363.70;343.38;;;8.10;99.90;;;;;;5037779;28;20200;-86
2021/11/03 10:07:54;;;;;;;394.90;373.77;;;8.10;99.90;;;;;;5037321;28;20241;-87
2021/11/03 10:10:32;;;;;;;352.88;333.48;;;8.20;99.90;;;;;;5038204;28;20195;-87
2021/11/03 10:13:08;;;;;;;386.63;365.45;;;8.30;99.90;;;;;;5038640;28;20199;-86
2021/11/03 10:15:39;;;;;;;373.20;352.90;;;8.30;99.90;;;;;;5038638;28;20179;-87
2021/11/03 10:18:21;;;;;;;378.58;357.77;;;8.20;99.90;;;;;;5037963;28;20261;-87
2021/11/03 10:21:24;;;;;;;349.08;329.35;;;8.30;99.90;;;;;;5037961;28;20522;-86
2021/11/03 10:24:35;;;;;;;338.63;319.33;;;8.40;99.90;;;;;;5041476;28;20660;-86
2021/11/03 10:30:58;;;;;;;348.60;329.23;;;8.30;99.90;;;;;;5121372;22;20232;-85
2021/11/03 10:51:56;;;;;;;313.38;294.73;;;8.30;99.90;;;;;;5091878;22;20311;-86
2021/11/03 10:58:28;;;;;;;327.65;308.05;;;8.30;99.90;;;;;;5044800;28;20177;-86
2021/11/03 11:01:39;;;;;;;332.20;312.50;;;8.30;99.90;;;;;;5046582;28;20199;-85
2021/11/03 11:05:11;;;;;;;299.70;281.73;;;8.30;99.90;;;;;;5042306;28;20172;-85
2021/11/03 11:10:45;;;;;;;;;;;;;;;;;;;;;
2021/11/03 11:13:26;;;;;;;316.20;297.77;;;8.40;99.90;;;;;;5045408;28;20467;-85
2021/11/03 11:16:18;;;;;;;320.08;301.55;;;8.40;99.90;;;;;;5045171;28;20184;-85
2021/11/03 11:19:37;;;;;;;336.77;317.38;;;8.40;99.90;;;;;;5046126;28;20180;-85
2021/11/03 11:22:25;;;;;;;297.10;279.55;;;8.30;99.90;;;;;;5044870;28;20264;-85
2021/11/03 11:24:57;;;;;;;327.23;308.00;;;8.40;99.90;;;;;;5047099;28;20152;-85
2021/11/03 11:28:00;;;;;;;333.08;313.67;;;8.40;99.90;;;;;;5044475;28;20172;-85
2021/11/03 11:31:06;;;;;;;358.13;337.70;;;8.40;99.90;;;;;;5047639;28;20184;-85
2021/11/03 11:34:01;;;;;;;358.80;339.15;;;8.40;99.90;;;;;;5046283;28;20171;-86
2021/11/03 11:36:36;;;;;;;339.08;319.98;;;8.30;99.90;;;;;;5045725;28;20161;-85
2021/11/03 11:39:33;;;;;;;345.73;326.23;;;8.40;99.90;;;;;;5046974;28;20173;-85
2021/11/03 11:42:36;;;;;;;373.52;353.13;;;8.40;99.90;;;;;;5045876;28;20149;-86
2021/11/03 11:45:21;;;;;;;343.60;324.05;;;8.40;99.90;;;;;;5045139;28;20165;-85
2021/11/03 11:48:03;;;;;;;384.95;364.27;;;8.40;99.90;;;;;;5042459;28;20165;-86
2021/11/03 11:50:59;;;;;;;368.13;347.80;;;8.40;99.90;;;;;;5040329;28;20257;-86
2021/11/03 11:55:06;;;;;;;365.48;345.38;;;8.40;99.90;;;;;;5038439;28;20526;-86
2021/11/03 11:57:46;;;;;;;367.48;347.00;;;8.40;99.90;;;;;;4987603;28;20584;-86
2021/11/03 12:04:46;;;;;;;393.75;371.95;;;8.40;99.90;;;;;;4944681;29;20203;-86
2021/11/03 12:10:35;;;;;;;391.73;369.85;;;8.50;99.90;;;;;;4904138;29;20212;-86
2021/11/03 12:13:32;;;;;;;341.98;322.05;;;8.50;99.90;;;;;;4930334;29;20533;-86
2021/11/03 12:19:51;;;;;;;339.67;319.92;;;8.50;99.90;;;;;;5026611;23;20247;-87
2021/11/03 12:25:53;;;;;;;363.13;342.92;;;8.50;99.90;;;;;;5012066;28;20177;-86
2021/11/03 12:28:52;;;;;;;;;;;;;;;;;;;;;
2021/11/03 12:31:52;;;;;;;377.17;356.13;;;8.50;99.90;;;;;;5039834;28;20279;-86
2021/11/03 12:34:43;;;;;;;349.90;330.55;;;8.50;99.90;;;;;;4988950;28;20176;-86
2021/11/03 12:41:15;;;;;;;374.20;352.95;;;8.60;99.90;;;;;;5103139;22;20221;-87
2021/11/03 12:44:06;;;;;;;;;;;;;;;;;;;;;
2021/11/03 12:47:02;;;;;;;;;;;;;;;;;;;;;
2021/11/03 12:49:40;;;;;;;375.98;355.80;;;8.60;99.90;;;;;;5041312;28;20272;-87
2021/11/03 12:52:45;;;;;;;335.10;316.30;;;8.70;99.90;;;;;;5039483;28;20227;-87
2021/11/03 12:55:41;;;;;;;324.60;305.48;;;8.60;99.90;;;;;;5038951;28;20637;-88
2021/11/03 12:58:32;;;;;;;381.85;360.75;;;8.60;99.90;;;;;;5041478;28;20193;-88
2021/11/03 13:01:15;;;;;;;337.20;318.40;;;8.70;99.90;;;;;;5043291;28;20587;-88
2021/11/03 13:04:14;;;;;;;342.58;323.67;;;8.70;99.90;;;;;;5043630;28;20164;-87
2021/11/03 13:07:04;;;;;;;353.45;333.92;;;8.80;99.90;;;;;;5044021;28;20173;-87
2021/11/03 13:09:43;;;;;;;333.98;313.85;;;8.90;99.90;;;;;;5044286;28;20193;-86
2021/11/03 13:12:20;;;;;;;328.25;309.65;;;8.90;99.90;;;;;;5042596;28;20640;-87
2021/11/03 13:14:55;;;;;;;348.70;329.10;;;8.90;99.90;;;;;;5040390;28;20165;-88
2021/11/03 13:17:34;;;;;;;359.73;339.73;;;9.00;99.90;;;;;;5040020;28;20161;-87
2021/11/03 13:20:03;;;;;;;373.08;352.90;;;9.10;99.90;;;;;;5040663;28;20154;-88
2021/11/03 13:22:48;;;;;;;347.30;328.05;;;9.10;99.90;;;;;;5040788;28;20196;-88
2021/11/03 13:25:29;;;;;;;304.35;286.73;;;9.10;99.90;;;;;;5040769;28;20563;-88
2021/11/03 13:27:55;;;;;;;378.70;358.42;;;9.10;99.90;;;;;;5040397;28;20191;-88
2021/11/03 13:30:34;;;;;;;353.55;334.05;;;9.10;99.90;;;;;;5040381;28;20239;-87
2021/11/03 13:33:29;;;;;;;;;;;;;;;;;;;;;
2021/11/03 13:36:04;;;;;;;400.60;378.77;;;9.10;99.90;;;;;;5041360;28;20256;-87
2021/11/03 13:38:34;;;;;;;391.02;370.13;;;9.20;99.90;;;;;;5039429;28;20230;-88
2021/11/03 13:41:02;;;;;;;378.83;357.67;;;9.20;99.90;;;;;;5040349;28;20175;-87
2021/11/03 13:43:28;;;;;;;356.65;336.33;;;9.30;99.90;;;;;;5040901;28;20188;-87
2021/11/03 13:46:26;;;;;;;394.25;373.40;;;9.30;99.90;;;;;;5040886;28;20502;-87
2021/11/03 13:49:01;;;;;;;378.40;358.58;;;9.30;99.90;;;;;;5036451;28;20201;-88
2021/11/03 13:51:39;;;;;;;349.92;331.20;;;9.40;99.90;;;;;;5039593;28;20189;-87
2021/11/03 13:54:38;;;;;;;332.38;314.33;;;9.30;99.90;;;;;;5040625;28;20154;-88
2021/11/03 13:57:31;;;;;;;240.45;224.88;;;9.30;99.90;;;;;;5039837;28;20184;-88
2021/11/03 14:00:28;;;;;;;195.70;181.65;;;9.40;99.90;;;;;;5044741;28;20220;-87
2021/11/03 14:03:01;;;;;;;177.73;164.00;;;9.30;99.90;;;;;;5044075;28;20165;-88
2021/11/03 14:05:44;;;;;;;184.40;170.43;;;9.20;99.90;;;;;;5041217;28;20246;-88
2021/11/03 14:08:25;;;;;;;192.55;178.45;;;9.20;99.90;;;;;;5042026;28;20184;-88
2021/11/03 14:10:55;;;;;;;222.30;207.32;;;9.20;99.90;;;;;;5041713;28;20220;-88
2021/11/03 14:13:23;;;;;;;248.75;232.27;;;9.10;99.90;;;;;;5041238;28;20172;-87
2021/11/03 14:15:52;;;;;;;255.93;239.77;;;9.20;99.90;;;;;;5041249;28;20169;-87
2021/11/03 14:18:34;;;;;;;;;;;;;;;;;;;;;
2021/11/03 14:21:04;;;;;;;274.80;257.95;;;9.30;99.90;;;;;;5040870;28;20704;-87
2021/11/03 14:23:33;;;;;;;291.88;273.77;;;9.20;99.90;;;;;;5041292;28;20169;-88
2021/11/03 14:26:02;;;;;;;324.70;306.10;;;9.20;99.90;;;;;;5040044;28;20511;-87
2021/11/03 14:28:31;;;;;;;313.48;295.40;;;9.20;99.90;;;;;;5039424;28;20197;-87
2021/11/03 14:31:27;;;;;;;360.45;340.27;;;9.10;99.90;;;;;;5038878;28;20204;-87
2021/11/03 14:33:59;;;;;;;306.95;289.20;;;9.10;99.90;;;;;;5038395;28;20199;-87
2021/11/03 14:36:28;;;;;;;328.42;309.75;;;9.10;99.90;;;;;;5039452;28;20583;-87
2021/11/03 14:38:55;;;;;;;294.95;277.48;;;9.10;99.90;;;;;;5038417;28;20185;-87
2021/11/03 14:41:26;;;;;;;252.23;236.15;;;9.20;99.90;;;;;;5040312;28;20164;-88
2021/11/03 14:43:56;;;;;;;276.50;259.40;;;9.30;99.90;;;;;;5040470;28;20688;-88
2021/11/03 14:46:30;;;;;;;245.77;229.63;;;9.20;99.90;;;;;;5038618;28;20196;-88
2021/11/03 14:48:59;;;;;;;230.07;215.02;;;9.10;99.90;;;;;;5040234;28;20188;-88
2021/11/03 14:51:29;;;;;;;246.77;230.55;;;9.10;99.90;;;;;;5040197;28;20185;-86